Eureka の空港の天気 - METARとTAF

Eureka ( CWEU / ) - カナダ ヌナブト準州Eureka
飛行場実況気象(Metar)
観測時間12/09 21:00 CST (12/10 03:00 UTC)
風向・風速南 17m/s 瞬間風速23m/s
視程200m
天気現象弱い雪 高い地吹雪
全天を覆う雲 鉛直視程 240m
気温-18℃
湿度77%
気圧998.3hPa
METARCWEU 100300Z 18033G45KT 1/8SM -SN BLSN VV008 M18/M21 A2947 RMK BLSN8 LAST OBS/NEXT 100600 UTC SLP983
過去の天気等 Google飛行場航空写真 Wunderground天気予報

過去48時間のMETAR

飛行場予報(TAF)
データがありません